ARG1858 SAAR-SABE
Flight info
| Callsign | ARG1858 |
|---|---|
| Flight time | 0h 28m |
| Altitude | 25000 |
| Route | VASA1G VASAL W20 MULTA W24 SNT SNT8Q |
| Aircraft | B737/M-V/N |
Departure
| Time | 2026-04-21 00:26 |
|---|---|
| Airport | Rosario Islas Malvinas International Airport (SAAR) |
Arrival
| Time | 2026-04-21 00:54 |
|---|---|
| Airport | Aeroparque Jorge Newbery (SABE) |
| Time | Latitude | Longitude | Altitude | Speed | Heading |
|---|---|---|---|---|---|
| 2026-04-21 00:10 | -32.91530 | -60.78042 | 94 ft | 0 kts | 110° |
| 2026-04-21 00:17 | -32.91529 | -60.78047 | 94 ft | 2 kts | 110° |
| 2026-04-21 00:18 | -32.91524 | -60.78064 | 94 ft | 3 kts | 102° |
| 2026-04-21 00:18 | -32.91524 | -60.78087 | 94 ft | 3 kts | 74° |
| 2026-04-21 00:18 | -32.91534 | -60.78107 | 94 ft | 3 kts | 38° |
| 2026-04-21 00:18 | -32.91540 | -60.78111 | 94 ft | 0 kts | 27° |
| 2026-04-21 00:19 | -32.91539 | -60.78111 | 94 ft | 0 kts | 27° |
| 2026-04-21 00:19 | -32.91531 | -60.78106 | 94 ft | 3 kts | 27° |
| 2026-04-21 00:20 | -32.91505 | -60.78100 | 94 ft | 5 kts | 356° |
| 2026-04-21 00:20 | -32.91464 | -60.78125 | 94 ft | 8 kts | 323° |
| 2026-04-21 00:20 | -32.91410 | -60.78174 | 94 ft | 11 kts | 322° |
| 2026-04-21 00:20 | -32.91340 | -60.78241 | 94 ft | 14 kts | 321° |
| 2026-04-21 00:21 | -32.91255 | -60.78321 | 94 ft | 17 kts | 321° |
| 2026-04-21 00:21 | -32.91153 | -60.78416 | 94 ft | 20 kts | 321° |
| 2026-04-21 00:21 | -32.91030 | -60.78511 | 94 ft | 22 kts | 334° |
| 2026-04-21 00:21 | -32.90877 | -60.78558 | 94 ft | 24 kts | 356° |
| 2026-04-21 00:22 | -32.90689 | -60.78543 | 94 ft | 29 kts | 13° |
| 2026-04-21 00:22 | -32.90475 | -60.78487 | 94 ft | 34 kts | 11° |
| 2026-04-21 00:22 | -32.90227 | -60.78430 | 94 ft | 38 kts | 11° |
| 2026-04-21 00:22 | -32.89950 | -60.78369 | 94 ft | 42 kts | 10° |
| 2026-04-21 00:23 | -32.89647 | -60.78301 | 94 ft | 46 kts | 11° |
| 2026-04-21 00:23 | -32.89323 | -60.78225 | 94 ft | 47 kts | 11° |
| 2026-04-21 00:23 | -32.89100 | -60.78150 | 94 ft | 11 kts | 55° |
| 2026-04-21 00:23 | -32.89042 | -60.78139 | 94 ft | 9 kts | 315° |
| 2026-04-21 00:24 | -32.89054 | -60.78168 | 94 ft | 4 kts | 193° |
| 2026-04-21 00:24 | -32.89063 | -60.78170 | 94 ft | 0 kts | 193° |
| 2026-04-21 00:25 | -32.89080 | -60.78175 | 94 ft | 23 kts | 193° |
| 2026-04-21 00:25 | -32.89688 | -60.78316 | 94 ft | 156 kts | 191° |
| 2026-04-21 00:25 | -32.91155 | -60.78655 | 256 ft | 262 kts | 191° |
| 2026-04-21 00:26 | -32.93111 | -60.79097 | 1335 ft | 296 kts | 191° |
| 2026-04-21 00:26 | -32.95177 | -60.79365 | 2306 ft | 297 kts | 183° |
| 2026-04-21 00:26 | -32.97256 | -60.79310 | 3081 ft | 303 kts | 176° |
| 2026-04-21 00:26 | -32.99374 | -60.79046 | 3836 ft | 312 kts | 173° |
| 2026-04-21 00:27 | -33.01535 | -60.78644 | 4587 ft | 315 kts | 171° |
| 2026-04-21 00:27 | -33.03693 | -60.78149 | 5337 ft | 318 kts | 170° |
| 2026-04-21 00:27 | -33.05867 | -60.77575 | 6091 ft | 321 kts | 169° |
| 2026-04-21 00:27 | -33.08057 | -60.76927 | 6847 ft | 321 kts | 169° |
| 2026-04-21 00:28 | -33.10228 | -60.76232 | 7395 ft | 328 kts | 168° |
| 2026-04-21 00:28 | -33.12453 | -60.75515 | 7901 ft | 332 kts | 168° |
| 2026-04-21 00:28 | -33.14630 | -60.74522 | 8380 ft | 341 kts | 156° |
| 2026-04-21 00:28 | -33.16377 | -60.72603 | 8889 ft | 349 kts | 130° |
| 2026-04-21 00:29 | -33.17688 | -60.70113 | 9418 ft | 350 kts | 122° |
| 2026-04-21 00:29 | -33.18881 | -60.67610 | 9913 ft | 351 kts | 121° |
| 2026-04-21 00:29 | -33.20161 | -60.65083 | 10381 ft | 358 kts | 124° |
| 2026-04-21 00:29 | -33.21577 | -60.62612 | 10836 ft | 369 kts | 128° |
| 2026-04-21 00:30 | -33.23176 | -60.60165 | 11315 ft | 376 kts | 132° |
| 2026-04-21 00:30 | -33.24928 | -60.57784 | 11823 ft | 380 kts | 135° |
| 2026-04-21 00:30 | -33.26750 | -60.55538 | 12321 ft | 382 kts | 137° |
| 2026-04-21 00:30 | -33.28688 | -60.53329 | 12826 ft | 384 kts | 140° |
| 2026-04-21 00:31 | -33.30686 | -60.51191 | 13330 ft | 385 kts | 142° |
| 2026-04-21 00:31 | -33.32789 | -60.49224 | 13831 ft | 384 kts | 147° |
| 2026-04-21 00:31 | -33.35007 | -60.47401 | 14338 ft | 383 kts | 149° |
| 2026-04-21 00:31 | -33.37233 | -60.45712 | 14834 ft | 382 kts | 151° |
| 2026-04-21 00:32 | -33.39536 | -60.44046 | 15338 ft | 382 kts | 152° |
| 2026-04-21 00:32 | -33.41799 | -60.42451 | 15791 ft | 382 kts | 153° |
| 2026-04-21 00:32 | -33.44103 | -60.40850 | 16242 ft | 382 kts | 153° |
| 2026-04-21 00:32 | -33.46428 | -60.39244 | 16696 ft | 382 kts | 153° |
| 2026-04-21 00:33 | -33.48722 | -60.37661 | 17144 ft | 382 kts | 153° |
| 2026-04-21 00:33 | -33.51027 | -60.36070 | 17556 ft | 383 kts | 153° |
| 2026-04-21 00:33 | -33.52574 | -60.35001 | 17811 ft | 390 kts | 153° |
| 2026-04-21 00:33 | -33.55010 | -60.33323 | 18249 ft | 420 kts | 153° |
| 2026-04-21 00:34 | -33.57561 | -60.31560 | 18748 ft | 419 kts | 153° |
| 2026-04-21 00:34 | -33.60912 | -60.29225 | 19413 ft | 418 kts | 153° |
| 2026-04-21 00:34 | -33.61801 | -60.28604 | 19590 ft | 420 kts | 153° |
| 2026-04-21 00:34 | -33.64345 | -60.26824 | 20094 ft | 425 kts | 153° |
| 2026-04-21 00:35 | -33.66835 | -60.24858 | 20595 ft | 432 kts | 143° |
| 2026-04-21 00:35 | -33.68803 | -60.22161 | 21089 ft | 440 kts | 123° |
| 2026-04-21 00:35 | -33.70190 | -60.18861 | 21605 ft | 444 kts | 116° |
| 2026-04-21 00:35 | -33.71511 | -60.15490 | 22114 ft | 448 kts | 117° |
| 2026-04-21 00:36 | -33.72926 | -60.12128 | 22622 ft | 451 kts | 118° |
| 2026-04-21 00:36 | -33.74386 | -60.08776 | 23125 ft | 454 kts | 119° |
| 2026-04-21 00:36 | -33.75868 | -60.05428 | 23625 ft | 454 kts | 120° |
| 2026-04-21 00:36 | -33.77360 | -60.02084 | 24126 ft | 454 kts | 120° |
| 2026-04-21 00:37 | -33.78823 | -59.98819 | 24614 ft | 455 kts | 120° |
| 2026-04-21 00:37 | -33.80336 | -59.95446 | 24953 ft | 463 kts | 120° |
| 2026-04-21 00:37 | -33.81884 | -59.92001 | 25017 ft | 472 kts | 120° |
| 2026-04-21 00:37 | -33.83446 | -59.88526 | 25008 ft | 473 kts | 120° |
| 2026-04-21 00:38 | -33.85005 | -59.85054 | 24999 ft | 469 kts | 120° |
| 2026-04-21 00:38 | -33.86551 | -59.81607 | 24996 ft | 468 kts | 120° |
| 2026-04-21 00:38 | -33.88079 | -59.78197 | 24996 ft | 468 kts | 120° |
| 2026-04-21 00:38 | -33.89625 | -59.74743 | 24996 ft | 468 kts | 120° |
| 2026-04-21 00:39 | -33.91168 | -59.71291 | 24996 ft | 468 kts | 120° |
| 2026-04-21 00:39 | -33.92713 | -59.67831 | 24996 ft | 468 kts | 120° |
| 2026-04-21 00:39 | -33.94257 | -59.64370 | 24996 ft | 468 kts | 120° |
| 2026-04-21 00:39 | -33.95801 | -59.60907 | 24996 ft | 468 kts | 120° |
| 2026-04-21 00:40 | -33.97310 | -59.57516 | 24996 ft | 468 kts | 120° |
| 2026-04-21 00:40 | -33.98871 | -59.54005 | 24883 ft | 460 kts | 120° |
| 2026-04-21 00:40 | -34.00344 | -59.50684 | 24504 ft | 453 kts | 120° |
| 2026-04-21 00:40 | -34.01815 | -59.47360 | 24065 ft | 446 kts | 120° |
| 2026-04-21 00:41 | -34.02888 | -59.44932 | 23732 ft | 441 kts | 120° |
| 2026-04-21 00:41 | -34.02904 | -59.44895 | 23727 ft | 441 kts | 120° |
| 2026-04-21 00:41 | -34.04333 | -59.41655 | 23276 ft | 435 kts | 120° |
| 2026-04-21 00:41 | -34.05747 | -59.38443 | 22823 ft | 430 kts | 120° |
| 2026-04-21 00:42 | -34.07151 | -59.35245 | 22343 ft | 426 kts | 120° |
| 2026-04-21 00:42 | -34.07940 | -59.33449 | 22050 ft | 424 kts | 119° |
| 2026-04-21 00:42 | -34.08814 | -59.31454 | 21719 ft | 422 kts | 119° |
| 2026-04-21 00:42 | -34.10183 | -59.28328 | 21193 ft | 419 kts | 119° |
| 2026-04-21 00:43 | -34.11545 | -59.25214 | 20663 ft | 415 kts | 119° |
| 2026-04-21 00:43 | -34.12867 | -59.22183 | 20143 ft | 411 kts | 119° |
| 2026-04-21 00:43 | -34.14193 | -59.19140 | 19615 ft | 406 kts | 119° |
| 2026-04-21 00:43 | -34.15507 | -59.16118 | 19084 ft | 401 kts | 119° |
| 2026-04-21 00:44 | -34.15728 | -59.15610 | 18994 ft | 400 kts | 119° |
| 2026-04-21 00:44 | -34.16609 | -59.13581 | 18634 ft | 397 kts | 119° |
| 2026-04-21 00:44 | -34.17888 | -59.10633 | 18107 ft | 394 kts | 119° |
| 2026-04-21 00:45 | -34.20441 | -59.04860 | 17031 ft | 386 kts | 120° |
| 2026-04-21 00:45 | -34.21716 | -59.02013 | 16456 ft | 383 kts | 120° |
| 2026-04-21 00:45 | -34.22984 | -58.99186 | 15879 ft | 380 kts | 120° |
| 2026-04-21 00:45 | -34.24246 | -58.96374 | 15300 ft | 377 kts | 120° |
| 2026-04-21 00:46 | -34.25485 | -58.93612 | 14726 ft | 373 kts | 120° |
| 2026-04-21 00:46 | -34.26722 | -58.90854 | 14148 ft | 370 kts | 120° |
| 2026-04-21 00:46 | -34.27929 | -58.88160 | 13578 ft | 367 kts | 120° |
| 2026-04-21 00:46 | -34.29132 | -58.85473 | 13003 ft | 361 kts | 120° |
| 2026-04-21 00:47 | -34.30317 | -58.82822 | 12408 ft | 353 kts | 120° |
| 2026-04-21 00:47 | -34.31481 | -58.80214 | 11762 ft | 344 kts | 120° |
| 2026-04-21 00:47 | -34.32581 | -58.77743 | 11142 ft | 333 kts | 120° |
| 2026-04-21 00:47 | -34.33718 | -58.75307 | 10503 ft | 323 kts | 125° |
| 2026-04-21 00:48 | -34.35017 | -58.73145 | 9879 ft | 314 kts | 131° |
| 2026-04-21 00:48 | -34.36401 | -58.71189 | 9261 ft | 307 kts | 135° |
| 2026-04-21 00:48 | -34.37848 | -58.69322 | 8636 ft | 302 kts | 137° |
| 2026-04-21 00:48 | -34.39317 | -58.67511 | 7998 ft | 288 kts | 137° |
| 2026-04-21 00:49 | -34.40676 | -58.65861 | 7393 ft | 269 kts | 138° |
| 2026-04-21 00:49 | -34.41968 | -58.64301 | 6738 ft | 255 kts | 138° |
| 2026-04-21 00:49 | -34.43184 | -58.62826 | 6081 ft | 241 kts | 137° |
| 2026-04-21 00:49 | -34.44340 | -58.61418 | 5429 ft | 232 kts | 135° |
| 2026-04-21 00:50 | -34.45390 | -58.59986 | 4780 ft | 225 kts | 129° |
| 2026-04-21 00:50 | -34.46350 | -58.58499 | 4144 ft | 220 kts | 126° |
| 2026-04-21 00:50 | -34.47252 | -58.56999 | 3496 ft | 219 kts | 125° |
| 2026-04-21 00:50 | -34.48122 | -58.55496 | 3000 ft | 210 kts | 124° |
| 2026-04-21 00:51 | -34.48891 | -58.54145 | 3009 ft | 187 kts | 124° |
| 2026-04-21 00:51 | -34.49593 | -58.52911 | 2865 ft | 170 kts | 124° |
| 2026-04-21 00:51 | -34.50244 | -58.51745 | 2585 ft | 161 kts | 124° |
| 2026-04-21 00:51 | -34.50855 | -58.50642 | 2240 ft | 158 kts | 123° |
| 2026-04-21 00:52 | -34.51465 | -58.49519 | 1858 ft | 159 kts | 124° |
| 2026-04-21 00:52 | -34.52091 | -58.48411 | 1469 ft | 158 kts | 125° |
| 2026-04-21 00:52 | -34.52713 | -58.47338 | 1176 ft | 154 kts | 124° |
| 2026-04-21 00:52 | -34.53315 | -58.46263 | 888 ft | 152 kts | 123° |
| 2026-04-21 00:53 | -34.53872 | -58.45224 | 678 ft | 147 kts | 123° |
| 2026-04-21 00:53 | -34.54439 | -58.44199 | 413 ft | 146 kts | 125° |
| 2026-04-21 00:53 | -34.55013 | -58.43198 | 192 ft | 142 kts | 125° |
| 2026-04-21 00:53 | -34.55549 | -58.42241 | 28 ft | 129 kts | 124° |
| 2026-04-21 00:54 | -34.55972 | -58.41479 | 27 ft | 84 kts | 124° |
| 2026-04-21 00:54 | -34.56156 | -58.41150 | 27 ft | 12 kts | 124° |
| 2026-04-21 00:54 | -34.56168 | -58.41117 | 27 ft | 4 kts | 104° |
| 2026-04-21 00:54 | -34.56174 | -58.41070 | 27 ft | 7 kts | 86° |
| 2026-04-21 00:55 | -34.56165 | -58.41038 | 27 ft | 1 kts | 60° |
| 2026-04-21 00:55 | -34.56164 | -58.41037 | 27 ft | 0 kts | 60° |
| 2026-04-21 00:56 | -34.56161 | -58.41030 | 27 ft | 2 kts | 60° |
| 2026-04-21 00:56 | -34.56150 | -58.41009 | 27 ft | 4 kts | 58° |
| 2026-04-21 00:56 | -34.56133 | -58.40984 | 27 ft | 3 kts | 15° |
| 2026-04-21 00:57 | -34.56115 | -58.40999 | 27 ft | 4 kts | 318° |
| 2026-04-21 00:57 | -34.56093 | -58.41028 | 27 ft | 5 kts | 306° |
| 2026-04-21 00:57 | -34.56081 | -58.41047 | 27 ft | 6 kts | 308° |
| 2026-04-21 00:57 | -34.56051 | -58.41093 | 27 ft | 8 kts | 308° |
| 2026-04-21 00:58 | -34.56045 | -58.41102 | 27 ft | 8 kts | 308° |
| 2026-04-21 00:58 | -34.56010 | -58.41158 | 27 ft | 9 kts | 305° |
| 2026-04-21 00:58 | -34.55971 | -58.41226 | 27 ft | 10 kts | 305° |
| 2026-04-21 00:58 | -34.55928 | -58.41300 | 27 ft | 10 kts | 305° |
| 2026-04-21 00:59 | -34.55899 | -58.41323 | 27 ft | 8 kts | 355° |
| 2026-04-21 00:59 | -34.55860 | -58.41299 | 27 ft | 7 kts | 33° |
| 2026-04-21 00:59 | -34.55830 | -58.41296 | 27 ft | 5 kts | 311° |
| 2026-04-21 00:59 | -34.55806 | -58.41332 | 27 ft | 6 kts | 307° |
| 2026-04-21 01:00 | -34.55780 | -58.41381 | 27 ft | 8 kts | 299° |
| 2026-04-21 01:00 | -34.55751 | -58.41441 | 27 ft | 9 kts | 300° |
| 2026-04-21 01:00 | -34.55726 | -58.41466 | 27 ft | 4 kts | 18° |
| 2026-04-21 01:00 | -34.55703 | -58.41453 | 27 ft | 2 kts | 27° |
| 2026-04-21 01:01 | -34.55699 | -58.41450 | 27 ft | 0 kts | 27° |